Time;durP1;ratioP1;P1;durP2;ratioP2;P2;SDS_P1;SDS_P2;PMS_P1;PMS_P2;Temp;Humidity;BMP_temperature;BMP_pressure;BME280_temperature;BME280_humidity;BME280_pressure;Samples;Min_cycle;Max_cycle;Signal;HPM_P1;HPM_P2
2021/12/30 00:01:36;;;;;;;1.33;0.82;;;6.50;99.90;;;;;;5019528;28;20025;-72
2021/12/30 00:04:03;;;;;;;2.07;1.17;;;6.50;99.90;;;;;;5025926;28;20026;-71
2021/12/30 00:06:30;;;;;;;3.17;0.85;;;6.50;99.90;;;;;;5021133;28;20013;-73
2021/12/30 00:08:56;;;;;;;1.45;1.10;;;6.50;99.90;;;;;;5025991;28;20087;-72
2021/12/30 00:11:22;;;;;;;1.50;1.00;;;6.60;99.90;;;;;;5021410;28;20034;-72
2021/12/30 00:13:49;;;;;;;1.67;0.98;;;6.60;99.90;;;;;;5025207;28;20044;-72
2021/12/30 00:16:16;;;;;;;;;;;6.60;99.90;;;;;;5002562;28;20044;-71
2021/12/30 00:18:42;;;;;;;3.10;1.77;;;6.60;99.90;;;;;;5029003;28;19963;-73
2021/12/30 00:21:09;;;;;;;5.90;2.40;;;6.60;99.90;;;;;;5022023;28;20896;-77
2021/12/30 00:23:35;;;;;;;;;;;6.50;99.90;;;;;;5018948;28;20254;-71
2021/12/30 00:26:01;;;;;;;3.42;2.05;;;6.50;99.90;;;;;;5013298;28;20008;-79
2021/12/30 00:28:28;;;;;;;2.50;1.77;;;6.60;99.90;;;;;;5018688;28;20021;-78
2021/12/30 00:30:54;;;;;;;2.88;1.70;;;6.50;99.90;;;;;;5023444;28;20047;-74
2021/12/30 00:33:20;;;;;;;3.03;1.70;;;6.50;99.90;;;;;;5018101;28;20032;-71
2021/12/30 00:35:47;;;;;;;3.35;1.88;;;6.50;99.90;;;;;;5027787;28;20033;-78
2021/12/30 00:38:13;;;;;;;3.80;1.60;;;6.50;99.90;;;;;;5023370;28;20033;-74
2021/12/30 00:40:40;;;;;;;2.07;1.47;;;6.50;99.90;;;;;;5024576;28;20044;-72
2021/12/30 00:43:07;;;;;;;5.32;1.90;;;6.50;99.90;;;;;;5024612;28;20046;-74
2021/12/30 00:45:35;;;;;;;2.90;1.58;;;6.40;99.90;;;;;;5021927;28;21127;-71
2021/12/30 00:48:02;;;;;;;5.13;1.80;;;6.40;99.90;;;;;;5016646;28;20383;-72
2021/12/30 00:50:30;;;;;;;2.70;1.70;;;6.40;99.90;;;;;;5026309;28;20025;-71
2021/12/30 00:52:58;;;;;;;3.65;2.05;;;6.40;99.90;;;;;;5023961;28;20561;-71
2021/12/30 00:55:25;;;;;;;3.05;1.65;;;6.40;99.90;;;;;;5016601;28;20022;-71
2021/12/30 00:57:51;;;;;;;3.92;2.10;;;6.40;99.90;;;;;;5020927;28;20094;-72
2021/12/30 01:00:18;;;;;;;2.63;2.00;;;6.40;99.90;;;;;;5023405;28;20471;-71
2021/12/30 01:02:46;;;;;;;3.95;2.20;;;6.30;99.90;;;;;;5005790;28;20029;-72
2021/12/30 01:05:12;;;;;;;4.38;1.92;;;6.30;99.90;;;;;;5006629;28;20176;-71
2021/12/30 01:07:38;;;;;;;4.30;2.25;;;6.30;99.90;;;;;;5003247;28;20021;-72
2021/12/30 01:10:05;;;;;;;;;;;6.30;99.90;;;;;;5017462;28;20025;-71
2021/12/30 01:12:32;;;;;;;3.08;1.90;;;6.30;99.90;;;;;;5023262;28;19927;-75
2021/12/30 01:15:00;;;;;;;;;;;6.30;99.90;;;;;;5026183;28;20039;-71
2021/12/30 01:17:42;;;;;;;;;;;6.30;99.90;;;;;;5019277;28;19917;-74
2021/12/30 01:20:13;;;;;;;4.32;2.15;;;6.30;99.90;;;;;;5026356;28;19909;-76
2021/12/30 01:22:39;;;;;;;3.60;2.03;;;6.30;99.90;;;;;;5024551;28;20025;-73
2021/12/30 01:25:08;;;;;;;4.53;2.30;;;6.30;99.90;;;;;;5027810;28;20097;-73
2021/12/30 01:27:39;;;;;;;4.13;2.13;;;6.30;99.90;;;;;;5022290;28;20029;-73
2021/12/30 01:30:10;;;;;;;4.70;2.17;;;6.30;99.90;;;;;;5025958;28;20013;-76
2021/12/30 01:32:37;;;;;;;2.92;2.20;;;6.30;99.90;;;;;;5021343;28;21327;-73
2021/12/30 01:35:09;;;;;;;4.78;2.15;;;6.30;99.90;;;;;;5027829;28;20017;-72
2021/12/30 01:37:36;;;;;;;3.20;2.38;;;6.30;99.90;;;;;;5029512;28;20478;-72
2021/12/30 01:40:04;;;;;;;3.85;2.05;;;6.30;99.90;;;;;;5028755;28;20577;-73
2021/12/30 01:42:32;;;;;;;5.20;2.70;;;6.30;99.90;;;;;;5006795;28;20036;-74
2021/12/30 01:44:59;;;;;;;3.28;2.55;;;6.40;99.90;;;;;;5017665;28;20394;-72
2021/12/30 01:47:25;;;;;;;3.83;2.22;;;6.30;99.90;;;;;;5022920;28;20126;-72
2021/12/30 01:49:53;;;;;;;4.85;2.95;;;6.40;99.90;;;;;;5026600;28;20367;-72
2021/12/30 01:52:20;;;;;;;5.25;2.20;;;6.40;99.90;;;;;;5025754;28;20079;-72
2021/12/30 01:54:46;;;;;;;2.65;2.40;;;6.40;99.90;;;;;;5031103;28;20025;-72
2021/12/30 01:57:13;;;;;;;4.47;2.40;;;6.40;99.90;;;;;;5026819;28;20086;-72
2021/12/30 01:59:39;;;;;;;;;;;6.30;99.90;;;;;;5022368;28;20086;-73
2021/12/30 02:02:05;;;;;;;4.28;2.47;;;6.30;99.90;;;;;;5030917;28;19921;-72
2021/12/30 02:04:31;;;;;;;5.25;2.60;;;6.40;99.90;;;;;;5023999;28;20041;-74
2021/12/30 02:06:59;;;;;;;3.70;2.22;;;6.40;99.90;;;;;;5011513;28;20123;-76
2021/12/30 02:09:26;;;;;;;6.65;1.98;;;6.40;99.90;;;;;;5004395;28;20032;-72
2021/12/30 02:11:53;;;;;;;;;;;6.50;99.90;;;;;;5026802;28;20087;-72
2021/12/30 02:14:20;;;;;;;2.90;1.73;;;6.50;99.90;;;;;;5023681;28;19908;-72
2021/12/30 02:16:47;;;;;;;3.53;1.77;;;6.60;99.90;;;;;;5026691;28;20475;-74
2021/12/30 02:19:13;;;;;;;2.65;1.23;;;6.60;99.90;;;;;;5027838;28;20532;-73
2021/12/30 02:21:38;;;;;;;3.40;1.60;;;6.60;99.90;;;;;;5021669;28;20025;-72
2021/12/30 02:24:05;;;;;;;2.87;1.30;;;6.70;99.90;;;;;;5022355;28;20017;-72
2021/12/30 02:26:32;;;;;;;3.25;1.55;;;6.70;99.90;;;;;;5023793;28;20032;-73
2021/12/30 02:28:57;;;;;;;1.48;0.80;;;6.70;99.90;;;;;;5012366;28;20022;-72
2021/12/30 02:31:28;;;;;;;4.00;1.20;;;6.70;99.90;;;;;;5017907;28;20022;-72
2021/12/30 02:33:55;;;;;;;3.63;1.00;;;6.80;99.90;;;;;;5006475;28;20032;-72
2021/12/30 02:36:29;;;;;;;1.08;0.80;;;6.90;99.90;;;;;;5021925;28;20486;-72
2021/12/30 02:38:55;;;;;;;1.73;0.70;;;7.00;99.90;;;;;;5014790;28;20040;-72
2021/12/30 02:41:21;;;;;;;1.53;0.60;;;7.00;99.90;;;;;;5013570;28;20041;-73
2021/12/30 02:43:48;;;;;;;3.60;1.30;;;7.10;99.90;;;;;;5029577;28;20971;-73
2021/12/30 02:46:28;;;;;;;5.20;2.78;;;7.20;99.90;;;;;;5024682;28;20049;-73
2021/12/30 02:48:55;;;;;;;5.00;2.75;;;7.00;99.90;;;;;;5024755;28;20033;-72
2021/12/30 02:51:21;;;;;;;5.22;3.00;;;7.00;99.90;;;;;;5025981;28;20065;-72
2021/12/30 02:53:48;;;;;;;6.70;2.70;;;7.00;99.90;;;;;;5024315;28;20057;-73
2021/12/30 02:56:13;;;;;;;3.92;2.60;;;6.90;99.90;;;;;;5024990;28;20021;-75
2021/12/30 02:58:40;;;;;;;4.77;2.73;;;6.90;99.90;;;;;;5023851;28;20028;-74
2021/12/30 03:01:12;;;;;;;;;;;6.90;99.90;;;;;;5031630;28;20033;-73
2021/12/30 03:03:40;;;;;;;4.70;2.60;;;6.80;99.90;;;;;;5024882;28;20607;-77
2021/12/30 03:06:07;;;;;;;5.35;2.80;;;6.80;99.90;;;;;;5027289;28;20021;-79
2021/12/30 03:08:33;;;;;;;4.63;2.95;;;6.70;99.90;;;;;;5023509;28;20017;-73
2021/12/30 03:11:00;;;;;;;4.72;2.90;;;6.70;99.90;;;;;;5026673;28;20017;-72
2021/12/30 03:13:31;;;;;;;5.35;2.75;;;6.70;99.90;;;;;;5018282;28;21428;-72
2021/12/30 03:16:04;;;;;;;6.47;3.10;;;6.70;99.90;;;;;;5012600;28;20082;-72
2021/12/30 03:18:33;;;;;;;5.65;2.70;;;6.70;99.90;;;;;;5003975;28;20028;-72
2021/12/30 03:21:03;;;;;;;5.78;2.78;;;6.70;99.90;;;;;;5024740;28;20032;-73
2021/12/30 03:23:30;;;;;;;5.72;3.28;;;6.70;99.90;;;;;;5023091;28;20117;-73
2021/12/30 03:25:56;;;;;;;4.68;2.65;;;6.70;99.90;;;;;;5029948;28;20026;-73
2021/12/30 03:28:21;;;;;;;4.80;2.83;;;6.70;99.90;;;;;;5027688;28;20060;-73
2021/12/30 03:30:48;;;;;;;4.50;2.33;;;6.70;99.90;;;;;;5022629;28;20093;-73
2021/12/30 03:33:15;;;;;;;;;;;6.70;99.90;;;;;;5006695;28;20022;-72
2021/12/30 03:35:42;;;;;;;4.43;1.88;;;6.70;99.90;;;;;;5011724;28;20671;-72
2021/12/30 03:38:07;;;;;;;4.43;2.10;;;6.70;99.90;;;;;;5019286;28;20060;-73
2021/12/30 03:40:35;;;;;;;3.60;1.48;;;6.70;99.90;;;;;;5012650;28;20075;-72
2021/12/30 03:43:02;;;;;;;1.77;1.20;;;6.70;99.90;;;;;;5026224;28;20036;-72
2021/12/30 03:45:31;;;;;;;3.00;1.73;;;6.70;99.90;;;;;;5002856;28;20434;-72
2021/12/30 03:47:56;;;;;;;2.25;1.38;;;6.70;99.90;;;;;;5028331;28;20017;-72
2021/12/30 03:50:25;;;;;;;3.57;1.60;;;6.70;99.90;;;;;;5017673;28;20030;-72
2021/12/30 03:52:53;;;;;;;3.78;1.55;;;6.80;99.90;;;;;;5010129;28;20045;-73
2021/12/30 03:55:21;;;;;;;3.38;1.50;;;6.80;99.90;;;;;;5019850;28;20064;-72
2021/12/30 03:57:48;;;;;;;2.92;1.30;;;6.80;99.90;;;;;;5029099;28;20025;-72
2021/12/30 04:00:14;;;;;;;2.53;1.20;;;6.80;99.90;;;;;;5024890;28;20372;-74
2021/12/30 04:02:41;;;;;;;3.60;1.00;;;6.90;99.90;;;;;;5020988;28;20021;-72
2021/12/30 04:05:08;;;;;;;1.88;0.80;;;6.90;99.90;;;;;;5024855;28;20021;-73
2021/12/30 04:07:34;;;;;;;5.30;0.90;;;7.00;99.90;;;;;;5022783;28;20025;-73
2021/12/30 04:09:59;;;;;;;3.55;1.83;;;7.10;99.90;;;;;;5021589;28;20489;-72
2021/12/30 04:12:25;;;;;;;1.83;0.80;;;7.20;99.90;;;;;;5020098;28;20025;-72
2021/12/30 04:14:53;;;;;;;2.97;1.13;;;7.20;99.90;;;;;;5027402;28;20088;-79
2021/12/30 04:17:19;;;;;;;5.07;2.22;;;7.30;99.90;;;;;;5022518;28;20025;-72
2021/12/30 04:19:45;;;;;;;5.13;2.77;;;7.30;99.90;;;;;;5007970;28;20032;-73
2021/12/30 04:22:14;;;;;;;4.00;2.40;;;7.20;99.90;;;;;;5024327;28;20434;-73
2021/12/30 04:24:41;;;;;;;3.53;3.20;;;7.20;99.90;;;;;;5002634;28;20703;-73
2021/12/30 04:27:08;;;;;;;5.82;3.10;;;7.10;99.90;;;;;;5026274;28;20043;-73
2021/12/30 04:29:33;;;;;;;6.55;3.13;;;7.00;99.90;;;;;;5024580;28;20029;-70
2021/12/30 04:31:59;;;;;;;4.50;3.17;;;7.00;99.90;;;;;;5025710;28;20070;-71
2021/12/30 04:34:27;;;;;;;7.20;2.93;;;6.90;99.90;;;;;;5022621;28;20538;-73
2021/12/30 04:36:58;;;;;;;4.32;2.90;;;6.90;99.90;;;;;;5015510;28;20028;-73
2021/12/30 04:39:27;;;;;;;5.97;2.97;;;6.90;99.90;;;;;;5007738;28;20452;-73
2021/12/30 04:41:55;;;;;;;4.60;2.90;;;6.90;99.90;;;;;;5025065;28;20162;-72
2021/12/30 04:44:21;;;;;;;6.70;3.33;;;6.80;99.90;;;;;;5020250;28;20023;-73
2021/12/30 04:46:47;;;;;;;4.60;2.28;;;6.90;99.90;;;;;;5024372;28;20072;-73
2021/12/30 04:49:12;;;;;;;6.50;2.20;;;6.90;99.90;;;;;;5004420;28;20998;-72
2021/12/30 04:51:38;;;;;;;3.87;2.67;;;6.80;99.90;;;;;;5022944;28;20692;-71
2021/12/30 04:54:06;;;;;;;3.27;2.30;;;6.90;99.90;;;;;;5025190;28;20057;-72
2021/12/30 04:56:31;;;;;;;5.57;2.45;;;6.90;99.90;;;;;;5030654;28;20029;-72
2021/12/30 04:58:57;;;;;;;4.57;2.40;;;6.90;99.90;;;;;;5030023;28;20532;-74
2021/12/30 05:01:24;;;;;;;4.50;2.67;;;6.90;99.90;;;;;;5009220;28;20036;-73
2021/12/30 05:03:50;;;;;;;3.65;2.47;;;6.90;99.90;;;;;;5031773;28;20017;-73
2021/12/30 05:06:16;;;;;;;;;;;6.90;99.90;;;;;;5029763;28;20037;-72
2021/12/30 05:08:43;;;;;;;4.88;2.05;;;7.00;99.90;;;;;;5025150;28;19915;-73
2021/12/30 05:11:09;;;;;;;4.60;2.20;;;7.00;99.90;;;;;;5030132;28;20063;-72
2021/12/30 05:13:35;;;;;;;6.35;2.20;;;7.00;99.90;;;;;;5029424;28;20104;-73
2021/12/30 05:16:01;;;;;;;6.63;2.30;;;7.00;99.90;;;;;;5012260;28;20013;-72
2021/12/30 05:18:31;;;;;;;3.77;1.70;;;7.00;99.90;;;;;;5024131;28;20036;-73
2021/12/30 05:21:03;;;;;;;3.10;1.50;;;7.00;99.90;;;;;;5026645;28;20111;-73
2021/12/30 05:23:30;;;;;;;1.98;1.40;;;7.00;99.90;;;;;;5026282;28;20030;-74
2021/12/30 05:25:56;;;;;;;1.67;1.40;;;7.00;99.90;;;;;;5010659;28;20476;-72
2021/12/30 05:28:22;;;;;;;3.63;1.63;;;7.10;99.90;;;;;;5027238;28;20083;-72
2021/12/30 05:30:48;;;;;;;3.93;1.80;;;7.10;99.90;;;;;;5024156;28;20022;-73
2021/12/30 05:33:14;;;;;;;9.18;3.67;;;7.10;99.90;;;;;;5026328;28;20043;-73
2021/12/30 05:35:40;;;;;;;6.17;3.50;;;7.10;99.90;;;;;;5004998;28;20021;-76
2021/12/30 05:38:06;;;;;;;6.13;3.13;;;7.10;99.90;;;;;;5027347;28;20021;-76
2021/12/30 05:40:32;;;;;;;5.55;3.22;;;7.10;99.90;;;;;;5022059;28;20033;-74
2021/12/30 05:42:59;;;;;;;5.15;3.47;;;7.20;99.90;;;;;;5028749;28;20249;-76
2021/12/30 05:45:26;;;;;;;5.85;3.33;;;7.10;99.90;;;;;;5027384;28;20080;-73
2021/12/30 05:47:53;;;;;;;6.93;3.83;;;7.10;99.90;;;;;;5008467;28;20040;-75
2021/12/30 05:50:28;;;;;;;5.05;2.90;;;7.10;99.90;;;;;;5023420;28;20033;-75
2021/12/30 05:52:54;;;;;;;7.07;3.42;;;7.10;99.90;;;;;;5016627;28;20528;-79
2021/12/30 05:55:20;;;;;;;8.70;3.97;;;7.10;99.90;;;;;;5029360;28;20032;-73
2021/12/30 05:57:47;;;;;;;5.83;3.67;;;7.00;99.90;;;;;;5011206;28;20038;-73
2021/12/30 06:00:14;;;;;;;;;;;7.00;99.90;;;;;;5011003;28;20264;-73
2021/12/30 06:02:40;;;;;;;7.35;3.67;;;7.00;99.90;;;;;;5026096;28;19916;-73
2021/12/30 06:05:07;;;;;;;5.28;3.58;;;7.00;99.90;;;;;;5015480;28;20026;-74
2021/12/30 06:07:33;;;;;;;;;;;7.10;99.90;;;;;;5018807;28;20037;-80
2021/12/30 06:10:00;;;;;;;6.97;3.88;;;7.20;99.90;;;;;;5029417;28;19913;-75
2021/12/30 06:12:26;;;;;;;5.82;3.60;;;7.10;99.90;;;;;;5005106;28;20025;-73
2021/12/30 06:14:52;;;;;;;7.70;3.70;;;7.10;99.90;;;;;;5024929;28;20021;-72
2021/12/30 06:17:18;;;;;;;5.40;3.03;;;7.00;99.90;;;;;;5028604;28;20072;-73
2021/12/30 06:19:44;;;;;;;5.97;4.00;;;7.00;99.90;;;;;;5023435;28;20029;-74
2021/12/30 06:22:12;;;;;;;9.55;4.32;;;7.10;99.90;;;;;;5028804;28;20101;-74
2021/12/30 06:24:38;;;;;;;6.07;3.70;;;7.00;99.90;;;;;;5021063;28;20743;-74
2021/12/30 06:27:03;;;;;;;8.48;4.40;;;7.00;99.90;;;;;;5025323;28;20057;-73
2021/12/30 06:29:29;;;;;;;6.77;4.07;;;7.10;99.90;;;;;;5023798;28;20026;-77
2021/12/30 06:31:55;;;;;;;8.97;4.07;;;7.10;99.90;;;;;;5027940;28;21385;-79
2021/12/30 06:34:20;;;;;;;3.73;2.00;;;7.20;99.90;;;;;;5028775;28;20025;-75
2021/12/30 06:36:47;;;;;;;2.70;1.90;;;7.20;99.90;;;;;;5021891;28;20043;-73
2021/12/30 06:39:13;;;;;;;2.85;2.10;;;7.30;99.90;;;;;;5024856;28;20033;-73
2021/12/30 06:41:40;;;;;;;3.15;1.70;;;7.40;99.90;;;;;;5026962;28;20470;-80
2021/12/30 06:44:05;;;;;;;1.65;1.27;;;7.50;99.90;;;;;;5024236;28;20108;-77
2021/12/30 06:46:34;;;;;;;1.57;1.43;;;7.60;99.90;;;;;;5028327;28;21008;-76
2021/12/30 06:49:01;;;;;;;1.55;1.20;;;7.70;99.90;;;;;;5013326;28;20107;-78
2021/12/30 06:51:33;;;;;;;2.22;1.25;;;7.80;99.90;;;;;;5022259;28;20068;-72
2021/12/30 06:54:01;;;;;;;1.48;1.38;;;7.90;99.90;;;;;;5029179;28;20027;-80
2021/12/30 06:56:26;;;;;;;2.08;1.33;;;7.90;99.90;;;;;;5005299;28;20024;-72
2021/12/30 06:58:52;;;;;;;1.70;1.60;;;8.00;99.90;;;;;;5027535;28;20025;-74
2021/12/30 07:01:18;;;;;;;2.57;1.67;;;8.10;99.90;;;;;;5031790;28;20564;-75
2021/12/30 07:03:43;;;;;;;3.50;1.93;;;8.10;99.90;;;;;;5004790;28;20029;-73
2021/12/30 07:06:09;;;;;;;1.97;1.40;;;8.20;99.90;;;;;;5009098;28;20029;-74
2021/12/30 07:08:35;;;;;;;2.07;1.43;;;8.30;99.90;;;;;;5030834;28;20114;-74
2021/12/30 07:11:02;;;;;;;2.10;1.80;;;8.40;99.90;;;;;;5007995;28;20021;-73
2021/12/30 07:13:27;;;;;;;;;;;8.40;99.90;;;;;;5009300;28;20029;-72
2021/12/30 07:15:53;;;;;;;2.25;1.35;;;8.40;99.90;;;;;;5026266;28;19915;-74
2021/12/30 07:18:19;;;;;;;1.50;1.40;;;8.50;99.90;;;;;;5027818;28;20021;-72
2021/12/30 07:20:44;;;;;;;1.87;1.67;;;8.50;99.90;;;;;;5021547;28;20029;-74
2021/12/30 07:23:13;;;;;;;1.40;1.30;;;8.50;99.90;;;;;;5024966;28;20037;-72
2021/12/30 07:25:39;;;;;;;2.17;1.85;;;8.50;99.90;;;;;;5021918;28;20615;-72
2021/12/30 07:28:04;;;;;;;2.23;1.80;;;8.50;99.90;;;;;;5030124;28;20029;-72
2021/12/30 07:30:30;;;;;;;1.57;1.47;;;8.60;99.90;;;;;;5022392;28;20108;-72
2021/12/30 07:32:56;;;;;;;2.90;2.10;;;8.60;99.90;;;;;;5026503;28;20029;-72
2021/12/30 07:35:24;;;;;;;2.22;2.00;;;8.60;99.90;;;;;;5025024;28;20036;-72
2021/12/30 07:37:50;;;;;;;2.88;2.20;;;8.60;99.90;;;;;;5019718;28;20032;-72
2021/12/30 07:40:17;;;;;;;2.95;2.38;;;8.70;99.90;;;;;;5016020;28;20140;-72
2021/12/30 07:42:43;;;;;;;2.97;2.40;;;8.80;99.90;;;;;;5002070;28;21121;-72
2021/12/30 07:45:10;;;;;;;3.25;2.50;;;8.80;99.90;;;;;;5026499;28;20009;-73
2021/12/30 07:47:37;;;;;;;3.33;2.47;;;8.80;99.90;;;;;;5016836;28;20478;-70
2021/12/30 07:50:04;;;;;;;2.83;2.40;;;8.90;99.90;;;;;;5023880;28;20029;-70
2021/12/30 07:52:30;;;;;;;3.25;2.80;;;8.90;99.90;;;;;;5026466;28;20029;-71
2021/12/30 07:54:56;;;;;;;2.80;2.47;;;8.90;99.90;;;;;;5028025;28;20024;-72
2021/12/30 07:57:22;;;;;;;2.87;2.40;;;9.00;99.90;;;;;;5027349;28;20028;-71
2021/12/30 07:59:52;;;;;;;3.50;2.30;;;9.00;99.90;;;;;;5012483;28;20021;-71
2021/12/30 08:02:19;;;;;;;2.40;2.20;;;9.10;99.90;;;;;;5026001;28;20490;-71
2021/12/30 08:04:44;;;;;;;2.40;1.95;;;9.20;99.90;;;;;;5015397;28;20029;-73
2021/12/30 08:07:11;;;;;;;2.67;2.37;;;9.30;99.90;;;;;;5021355;28;20609;-72
2021/12/30 08:09:37;;;;;;;2.33;2.13;;;9.40;99.90;;;;;;5021824;28;20021;-71
2021/12/30 08:12:03;;;;;;;2.57;2.20;;;9.40;99.90;;;;;;5005794;28;21158;-71
2021/12/30 08:14:29;;;;;;;2.00;1.80;;;9.50;99.90;;;;;;5003643;28;20025;-71
2021/12/30 08:16:57;;;;;;;2.20;1.70;;;9.50;99.90;;;;;;5023833;28;20029;-71
2021/12/30 08:19:22;;;;;;;3.00;1.50;;;9.60;99.90;;;;;;5024943;28;20040;-71
2021/12/30 08:21:50;;;;;;;2.13;1.50;;;9.70;99.90;;;;;;5017245;28;20563;-71
2021/12/30 08:24:16;;;;;;;1.45;1.33;;;9.80;99.90;;;;;;5029165;28;20036;-71
2021/12/30 08:26:41;;;;;;;1.77;1.50;;;9.80;99.90;;;;;;5023347;28;20030;-71
2021/12/30 08:29:07;;;;;;;2.40;1.33;;;9.90;99.90;;;;;;5029385;28;20053;-71
2021/12/30 08:31:34;;;;;;;1.60;1.30;;;9.90;99.90;;;;;;5023950;28;20541;-72
2021/12/30 08:34:00;;;;;;;;;;;10.10;99.90;;;;;;5016250;28;20022;-71
2021/12/30 08:36:25;;;;;;;1.98;1.50;;;10.10;99.90;;;;;;5028856;28;19909;-71
2021/12/30 08:38:51;;;;;;;1.30;1.17;;;10.10;99.90;;;;;;5024437;28;20037;-71
2021/12/30 08:41:17;;;;;;;1.50;1.40;;;10.10;99.90;;;;;;5028573;28;20072;-71
2021/12/30 08:43:42;;;;;;;2.23;1.33;;;10.10;99.90;;;;;;5011237;28;20448;-71
2021/12/30 08:46:08;;;;;;;1.20;1.10;;;10.10;99.90;;;;;;5032165;28;20030;-71
2021/12/30 08:48:36;;;;;;;1.33;1.20;;;10.10;99.90;;;;;;5024377;28;20026;-72
2021/12/30 08:51:02;;;;;;;1.55;1.20;;;10.10;99.90;;;;;;5026719;28;20049;-71
2021/12/30 08:53:29;;;;;;;1.70;1.37;;;10.10;99.90;;;;;;5031377;28;20109;-71
2021/12/30 08:55:56;;;;;;;1.00;0.90;;;10.10;99.90;;;;;;5028452;28;20070;-71
2021/12/30 08:58:22;;;;;;;1.48;1.27;;;10.20;99.90;;;;;;5028937;28;20063;-71
2021/12/30 09:00:48;;;;;;;1.27;1.02;;;10.20;99.90;;;;;;5028125;28;20087;-71
2021/12/30 09:03:16;;;;;;;1.20;1.07;;;10.30;99.90;;;;;;5028375;28;20017;-71
2021/12/30 09:05:43;;;;;;;1.50;1.13;;;10.40;99.90;;;;;;5026938;28;20471;-71
2021/12/30 09:08:09;;;;;;;1.23;1.13;;;10.40;99.90;;;;;;5032236;28;20043;-71
2021/12/30 09:10:40;;;;;;;1.20;0.90;;;10.50;99.90;;;;;;5026487;28;20021;-72
2021/12/30 09:13:08;;;;;;;1.25;0.85;;;10.50;99.90;;;;;;5025235;28;20270;-72
2021/12/30 09:15:34;;;;;;;1.70;0.98;;;10.50;99.90;;;;;;5033305;28;20024;-72
2021/12/30 09:18:01;;;;;;;3.40;1.00;;;10.60;99.90;;;;;;5026380;28;20025;-71
2021/12/30 09:20:28;;;;;;;1.48;0.93;;;10.60;99.90;;;;;;5012907;28;20037;-71
2021/12/30 09:22:56;;;;;;;1.42;1.10;;;10.70;99.90;;;;;;5024058;28;20025;-71
2021/12/30 09:25:24;;;;;;;2.33;0.90;;;10.70;99.90;;;;;;5031309;28;20056;-71
2021/12/30 09:27:53;;;;;;;2.25;1.27;;;10.80;99.90;;;;;;5003443;28;20025;-71
2021/12/30 09:30:19;;;;;;;1.23;0.80;;;10.90;99.90;;;;;;5014639;28;20026;-71
2021/12/30 09:32:47;;;;;;;1.55;0.82;;;11.00;99.90;;;;;;5022291;28;20026;-72
2021/12/30 09:35:13;;;;;;;1.50;1.40;;;11.10;99.90;;;;;;5026443;28;20028;-71
2021/12/30 09:37:39;;;;;;;;;;;11.20;99.90;;;;;;5021633;28;20029;-72
2021/12/30 09:40:10;;;;;;;1.63;0.95;;;11.20;99.90;;;;;;5017203;28;19913;-72
2021/12/30 09:42:36;;;;;;;1.70;1.08;;;11.30;99.90;;;;;;5026623;28;20025;-72
2021/12/30 09:45:04;;;;;;;1.10;1.00;;;11.40;99.90;;;;;;5010427;28;20033;-72
2021/12/30 09:47:30;;;;;;;1.08;0.73;;;11.40;99.90;;;;;;5014554;28;20363;-72
2021/12/30 09:49:56;;;;;;;1.08;0.90;;;11.40;99.90;;;;;;5030301;28;20067;-71
2021/12/30 09:52:22;;;;;;;1.50;1.03;;;11.60;99.90;;;;;;5032682;28;20020;-72
2021/12/30 09:54:48;;;;;;;4.13;2.83;;;11.80;99.90;;;;;;5030408;28;20266;-71
2021/12/30 09:57:13;;;;;;;2.70;1.00;;;12.00;99.90;;;;;;5027930;28;20025;-71
2021/12/30 09:59:39;;;;;;;1.47;1.10;;;12.20;99.90;;;;;;5023317;28;20079;-71
2021/12/30 10:02:05;;;;;;;1.60;1.00;;;12.30;99.90;;;;;;5028608;28;20451;-72
2021/12/30 10:04:33;;;;;;;;;;;12.40;99.90;;;;;;5025515;28;20029;-72
2021/12/30 10:07:00;;;;;;;1.15;1.00;;;12.50;99.90;;;;;;5028563;28;20020;-72
2021/12/30 10:09:50;;;;;;;1.02;0.95;;;12.60;99.90;;;;;;5034446;28;20033;-72
2021/12/30 10:12:44;;;;;;;1.48;1.10;;;12.70;99.90;;;;;;5024538;28;20143;-72
2021/12/30 10:15:10;;;;;;;1.40;1.30;;;12.80;99.90;;;;;;5013729;28;20124;-72
2021/12/30 10:17:36;;;;;;;1.80;1.10;;;12.90;99.90;;;;;;5010238;28;20028;-72
2021/12/30 10:20:24;;;;;;;2.80;1.42;;;13.00;99.90;;;;;;5028158;28;20029;-72
2021/12/30 10:22:51;;;;;;;4.05;1.20;;;13.20;99.90;;;;;;5014736;28;20714;-72
2021/12/30 10:25:30;;;;;;;1.63;1.10;;;13.50;99.90;;;;;;5017865;28;20037;-72
2021/12/30 10:28:26;;;;;;;2.10;1.10;;;14.30;99.90;;;;;;5028992;28;20112;-72
2021/12/30 10:31:12;;;;;;;3.45;1.13;;;15.50;99.90;;;;;;5025292;28;20267;-74
2021/12/30 10:34:04;;;;;;;0.90;0.80;;;16.60;97.70;;;;;;5025731;28;20070;-74
2021/12/30 10:36:35;;;;;;;1.13;1.02;;;17.80;93.70;;;;;;5025559;28;20039;-75
2021/12/30 10:39:21;;;;;;;3.35;1.42;;;18.60;91.80;;;;;;5028218;28;20029;-75
2021/12/30 10:41:50;;;;;;;1.10;1.00;;;18.80;89.10;;;;;;5012177;28;20401;-75
2021/12/30 10:44:17;;;;;;;2.40;1.00;;;19.00;90.30;;;;;;5029614;28;20033;-74
2021/12/30 10:46:46;;;;;;;1.60;1.05;;;19.30;85.60;;;;;;5022154;28;20025;-74
2021/12/30 10:49:26;;;;;;;1.02;0.85;;;18.70;84.00;;;;;;5009427;28;20550;-74
2021/12/30 10:51:57;;;;;;;3.90;0.90;;;18.20;90.00;;;;;;5009960;28;20017;-74
2021/12/30 10:54:36;;;;;;;1.08;0.98;;;18.40;90.00;;;;;;5005945;28;20029;-74
2021/12/30 10:57:06;;;;;;;2.35;1.27;;;18.80;90.30;;;;;;5012840;28;20335;-75
2021/12/30 10:59:37;;;;;;;1.10;1.00;;;19.20;86.60;;;;;;5012300;28;20104;-75
2021/12/30 11:02:06;;;;;;;1.13;1.02;;;19.00;87.00;;;;;;5011502;28;20027;-74
2021/12/30 11:04:41;;;;;;;1.80;1.00;;;19.30;87.50;;;;;;5029913;28;20102;-74
2021/12/30 11:07:09;;;;;;;2.75;1.13;;;19.60;85.60;;;;;;5028885;28;20037;-74
2021/12/30 11:09:36;;;;;;;1.77;1.20;;;19.40;85.00;;;;;;5025852;28;20109;-74
2021/12/30 11:12:05;;;;;;;1.65;0.90;;;19.40;87.50;;;;;;5010433;28;20573;-74
2021/12/30 11:14:34;;;;;;;4.78;1.63;;;19.30;84.70;;;;;;5010984;28;20052;-74
2021/12/30 11:17:05;;;;;;;3.60;1.38;;;18.90;89.10;;;;;;5021898;28;20985;-74
2021/12/30 11:19:40;;;;;;;3.28;1.20;;;19.00;90.00;;;;;;5027411;28;20037;-74
2021/12/30 11:22:15;;;;;;;1.73;1.15;;;19.00;89.50;;;;;;5012659;28;20514;-74
2021/12/30 11:24:43;;;;;;;2.50;1.30;;;19.00;88.50;;;;;;5008042;28;20025;-74
2021/12/30 11:27:14;;;;;;;4.90;2.72;;;19.00;88.80;;;;;;5007516;28;20027;-73
2021/12/30 11:29:45;;;;;;;0.90;0.80;;;18.90;89.50;;;;;;5020193;28;20021;-72
2021/12/30 11:32:13;;;;;;;4.10;1.70;;;18.80;87.10;;;;;;5020827;28;20445;-72
2021/12/30 11:34:40;;;;;;;3.40;1.40;;;18.70;91.00;;;;;;5026486;28;20017;-72
2021/12/30 11:37:08;;;;;;;1.60;1.23;;;18.80;90.00;;;;;;5028139;28;20021;-72
2021/12/30 11:39:34;;;;;;;1.27;1.17;;;18.60;90.70;;;;;;5010152;28;20025;-73
2021/12/30 11:42:35;;;;;;;2.15;1.00;;;18.40;91.00;;;;;;5025662;28;20110;-72
2021/12/30 11:45:03;;;;;;;6.40;2.17;;;18.00;91.70;;;;;;4994042;28;20033;-72
2021/12/30 11:47:36;;;;;;;2.08;1.55;;;17.80;92.30;;;;;;5031762;28;20096;-72
2021/12/30 11:50:10;;;;;;;1.77;1.30;;;17.40;93.40;;;;;;5026718;28;20053;-72
2021/12/30 11:52:46;;;;;;;1.20;1.10;;;17.20;94.00;;;;;;5022920;28;20016;-72
2021/12/30 11:55:50;;;;;;;3.13;1.95;;;17.10;94.90;;;;;;5023475;28;20025;-72
2021/12/30 11:58:28;;;;;;;1.52;1.30;;;17.00;95.20;;;;;;5026353;28;20035;-73
2021/12/30 12:01:00;;;;;;;2.72;1.42;;;16.90;95.20;;;;;;5025137;28;20031;-71
2021/12/30 12:03:38;;;;;;;1.50;1.10;;;16.90;95.80;;;;;;5015180;28;20501;-71
2021/12/30 12:06:24;;;;;;;1.77;1.15;;;16.80;95.50;;;;;;5022760;28;20383;-71
2021/12/30 12:08:53;;;;;;;2.17;1.13;;;16.50;96.60;;;;;;4992831;28;20045;-71
2021/12/30 12:11:23;;;;;;;1.98;1.10;;;16.60;96.00;;;;;;5008683;28;20475;-71
2021/12/30 12:13:51;;;;;;;1.00;0.90;;;16.60;97.10;;;;;;5022895;28;20025;-71
2021/12/30 12:16:44;;;;;;;2.67;1.20;;;16.70;97.10;;;;;;5026810;28;20768;-71
2021/12/30 12:19:11;;;;;;;1.42;0.90;;;16.80;96.10;;;;;;5026528;28;20013;-71
2021/12/30 12:21:42;;;;;;;2.70;1.23;;;16.80;95.70;;;;;;5010044;28;20053;-71
2021/12/30 12:24:21;;;;;;;2.05;1.20;;;16.80;96.30;;;;;;5027547;28;20029;-71
2021/12/30 12:26:55;;;;;;;1.60;1.50;;;16.50;96.40;;;;;;5024261;28;20029;-71
2021/12/30 12:29:23;;;;;;;3.50;1.88;;;16.20;97.80;;;;;;5027764;28;20031;-71
2021/12/30 12:31:56;;;;;;;2.75;1.30;;;15.90;98.50;;;;;;5023488;28;20371;-71
2021/12/30 12:34:45;;;;;;;1.33;1.10;;;15.80;98.60;;;;;;5029253;28;20025;-71
2021/12/30 12:37:29;;;;;;;1.75;1.25;;;15.70;99.10;;;;;;5011362;28;20017;-71
2021/12/30 12:40:12;;;;;;;1.50;1.08;;;15.60;99.60;;;;;;5018764;28;20057;-71
2021/12/30 12:42:52;;;;;;;5.47;2.50;;;15.60;98.60;;;;;;5019719;28;20024;-71
2021/12/30 12:45:24;;;;;;;3.30;2.20;;;15.50;99.10;;;;;;5025901;28;20028;-71
2021/12/30 12:48:17;;;;;;;4.00;1.45;;;15.40;99.30;;;;;;5019512;28;20025;-71
2021/12/30 12:50:54;;;;;;;3.92;1.70;;;15.30;99.90;;;;;;5023472;28;20025;-72
2021/12/30 12:53:40;;;;;;;5.40;2.60;;;15.10;99.90;;;;;;5028403;28;20026;-71
2021/12/30 12:56:21;;;;;;;1.67;1.20;;;15.10;99.90;;;;;;5027528;28;20032;-71
2021/12/30 12:58:53;;;;;;;4.55;1.17;;;15.10;99.90;;;;;;5021678;28;20067;-71
2021/12/30 13:01:22;;;;;;;2.03;1.58;;;15.10;99.90;;;;;;5023536;28;20078;-71
2021/12/30 13:03:49;;;;;;;4.47;1.60;;;15.20;99.90;;;;;;5022524;28;20033;-71
2021/12/30 13:06:41;;;;;;;1.85;1.00;;;15.30;99.90;;;;;;5027308;28;20087;-71